Time;durP1;ratioP1;P1;durP2;ratioP2;P2;SDS_P1;SDS_P2;PMS_P1;PMS_P2;Temp;Humidity;BMP_temperature;BMP_pressure;BME280_temperature;BME280_humidity;BME280_pressure;Samples;Min_cycle;Max_cycle;Signal;HPM_P1;HPM_P2
2022/04/25 00:00:58;;;;;;;;;17.50;13.25;;;;;16.23;46.29;100627.00;2394292;28;45484;-81
2022/04/25 00:02:09;;;;;;;;;21.50;18.50;;;;;16.20;45.83;100618.28;2394592;28;44663;-82
2022/04/25 00:03:20;;;;;;;;;21.25;20.50;;;;;16.19;45.85;100627.19;2394387;28;46111;-82
2022/04/25 00:04:31;;;;;;;;;18.50;17.75;;;;;16.18;45.73;100625.47;2394337;28;45445;-82
2022/04/25 00:05:41;;;;;;;;;22.50;18.75;;;;;16.18;45.86;100630.78;2400534;28;45489;-82
2022/04/25 00:06:52;;;;;;;;;22.50;19.75;;;;;16.18;45.87;100630.78;2409508;28;45163;-82
2022/04/25 00:08:02;;;;;;;;;18.75;17.00;;;;;16.17;45.90;100633.53;2407019;28;46087;-82
2022/04/25 00:09:12;;;;;;;;;19.75;18.25;;;;;16.17;46.16;100629.06;2394369;28;44762;-83
2022/04/25 00:10:23;;;;;;;;;21.25;19.00;;;;;16.18;45.70;100621.97;2402556;28;45271;-83
2022/04/25 00:11:33;;;;;;;;;17.00;14.50;;;;;16.17;46.24;100631.72;2402303;28;44684;-82
2022/04/25 00:12:44;;;;;;;;;17.25;16.50;;;;;16.15;45.77;100632.78;2403636;28;45521;-81
2022/04/25 00:13:55;;;;;;;;;21.50;20.00;;;;;16.13;45.98;100635.50;2403678;28;45176;-81
2022/04/25 00:15:07;;;;;;;;;19.00;17.50;;;;;16.11;45.85;100633.88;2403401;28;45631;-81
2022/04/25 00:16:18;;;;;;;;;17.75;15.75;;;;;16.07;45.71;100633.22;2403772;28;45407;-81
2022/04/25 00:17:28;;;;;;;;;21.00;18.25;;;;;16.03;46.17;100631.63;2403576;28;45594;-81
2022/04/25 00:18:39;;;;;;;;;14.25;11.00;;;;;15.99;46.09;100630.97;2403795;28;45306;-82
2022/04/25 00:19:49;;;;;;;;;20.25;17.25;;;;;15.95;46.07;100629.44;2405629;28;45496;-81
2022/04/25 00:21:03;;;;;;;;;19.25;16.25;;;;;15.98;45.98;100631.91;2403776;28;45344;-81
2022/04/25 00:22:13;;;;;;;;;17.50;15.75;;;;;15.95;46.45;100630.28;2403552;28;45349;-81
2022/04/25 00:23:24;;;;;;;;;20.75;17.50;;;;;15.99;46.37;100630.97;2404605;28;45210;-81
2022/04/25 00:24:34;;;;;;;;;13.25;12.75;;;;;15.93;45.90;100637.47;2405149;28;45237;-81
2022/04/25 00:25:44;;;;;;;;;20.50;17.75;;;;;15.89;46.10;100629.78;2403095;28;45427;-81
2022/04/25 00:26:55;;;;;;;;;12.75;12.50;;;;;15.86;46.17;100631.66;2403727;28;45438;-82
2022/04/25 00:28:07;;;;;;;;;20.00;18.00;;;;;15.84;45.63;100625.59;2403609;28;45229;-83
2022/04/25 00:29:17;;;;;;;;;18.25;17.00;;;;;15.83;46.33;100626.53;2403426;28;46475;-83
2022/04/25 00:30:28;;;;;;;;;8.50;8.50;;;;;15.83;46.37;100626.53;2403388;28;45179;-84
2022/04/25 00:31:40;;;;;;;;;16.50;14.75;;;;;15.82;46.04;100629.28;2408178;28;45259;-84
2022/04/25 00:32:51;;;;;;;;;17.00;13.50;;;;;15.81;46.32;100628.44;2409194;28;44568;-84
2022/04/25 00:34:01;;;;;;;;;23.25;18.75;;;;;15.81;46.28;100627.56;2394138;28;46549;-84
2022/04/25 00:35:12;;;;;;;;;20.25;16.50;;;;;15.80;46.37;100628.53;2401257;28;44759;-83
2022/04/25 00:36:22;;;;;;;;;19.75;16.50;;;;;15.79;46.27;100627.66;2407565;28;46283;-83
2022/04/25 00:37:32;;;;;;;;;17.50;14.00;;;;;15.79;46.66;100630.31;2403350;28;44814;-82
2022/04/25 00:38:43;;;;;;;;;19.75;16.00;;;;;15.80;46.47;100626.75;2403501;28;45406;-82
2022/04/25 00:39:54;;;;;;;;;17.25;15.00;;;;;15.82;46.50;100627.50;2403175;28;45302;-82
2022/04/25 00:41:07;;;;;;;;;18.50;17.00;;;;;15.83;46.02;100625.69;2403452;28;45245;-82
2022/04/25 00:42:17;;;;;;;;;19.75;15.75;;;;;15.81;46.29;100632.88;2403650;28;45369;-82
2022/04/25 00:43:28;;;;;;;;;18.00;17.50;;;;;15.77;46.40;100620.75;2403277;28;46512;-82
2022/04/25 00:44:38;;;;;;;;;17.25;16.25;;;;;15.74;46.50;100629.72;2403445;28;45544;-82
2022/04/25 00:45:49;;;;;;;;;12.50;11.75;;;;;15.72;46.38;100626.31;2408145;28;46289;-82
2022/04/25 00:47:00;;;;;;;;;19.25;18.00;;;;;15.71;46.20;100629.88;2408320;28;45363;-81
2022/04/25 00:48:10;;;;;;;;;18.50;16.75;;;;;15.66;46.37;100624.84;2403230;28;46799;-82
2022/04/25 00:49:23;;;;;;;;;20.25;15.00;;;;;15.61;46.68;100633.06;2403503;28;45235;-82
2022/04/25 00:50:33;;;;;;;;;14.75;13.75;;;;;15.58;46.57;100624.44;2403052;28;46275;-82
2022/04/25 00:51:43;;;;;;;;;18.00;14.75;;;;;15.55;46.58;100621.97;2403478;28;45213;-85
2022/04/25 00:52:54;;;;;;;;;22.75;19.25;;;;;15.55;46.81;100628.13;2405635;28;46464;-83
2022/04/25 00:54:05;;;;;;;;;17.25;15.75;;;;;15.54;46.67;100631.69;2406041;28;45254;-83
2022/04/25 00:55:15;;;;;;;;;15.50;15.50;;;;;15.53;46.73;100627.34;2403185;28;45539;-83
2022/04/25 00:56:26;;;;;;;;;18.50;16.75;;;;;15.48;46.77;100632.06;2403507;28;45234;-83
2022/04/25 00:57:38;;;;;;;;;20.00;16.00;;;;;15.49;46.85;100636.38;2403291;28;45431;-83
2022/04/25 00:58:49;;;;;;;;;16.75;13.75;;;;;15.46;46.78;100628.63;2403499;28;45274;-83
2022/04/25 01:00:00;;;;;;;;;15.25;15.25;;;;;15.43;46.22;100632.31;2406963;28;45341;-83
2022/04/25 01:01:12;;;;;;;;;20.00;16.00;;;;;15.39;46.63;100642.19;2409340;28;44857;-83
2022/04/25 01:02:23;;;;;;;;;17.50;12.25;;;;;15.35;47.15;100638.03;2402311;28;46292;-84
2022/04/25 01:03:33;;;;;;;;;18.50;15.50;;;;;15.32;46.70;100645.28;2403389;28;45196;-82
2022/04/25 01:04:43;;;;;;;;;19.50;19.00;;;;;15.27;46.52;100634.94;2401707;28;46314;-81
2022/04/25 01:05:54;;;;;;;;;19.25;16.50;;;;;15.24;46.80;100633.31;2402239;28;45483;-81
2022/04/25 01:07:05;;;;;;;;;19.00;16.75;;;;;15.24;47.29;100633.31;2394919;28;46714;-81
2022/04/25 01:08:15;;;;;;;;;9.75;9.75;;;;;15.25;47.12;100632.38;2393729;28;45207;-81
2022/04/25 01:09:26;;;;;;;;;15.50;15.50;;;;;15.27;47.35;100634.94;2393516;28;46324;-81
2022/04/25 01:10:36;;;;;;;;;26.75;21.75;;;;;15.28;47.13;100637.47;2393987;28;45264;-80
2022/04/25 01:11:47;;;;;;;;;23.50;21.25;;;;;15.27;47.07;100640.22;2392851;28;45526;-81
2022/04/25 01:12:57;;;;;;;;;26.25;23.75;;;;;15.27;46.89;100641.09;2383708;28;45252;-81
2022/04/25 01:14:16;;;;;;;;;29.75;26.75;;;;;15.29;46.87;100638.34;2382713;28;45338;-81
2022/04/25 01:15:28;;;;;;;;;23.25;20.75;;;;;15.30;47.16;100640.94;2385389;28;44760;-82
2022/04/25 01:16:39;;;;;;;;;28.25;22.25;;;;;15.28;47.08;100637.47;2393590;28;46195;-83
2022/04/25 01:17:49;;;;;;;;;22.00;21.25;;;;;15.27;46.91;100642.88;2394237;28;44805;-80
2022/04/25 01:18:59;;;;;;;;;30.75;25.25;;;;;15.27;46.96;100640.22;2385287;28;46581;-81
2022/04/25 01:20:10;;;;;;;;;29.75;22.25;;;;;15.27;46.86;100641.09;2393943;28;44643;-81
2022/04/25 01:21:21;;;;;;;;;19.25;16.75;;;;;15.29;46.99;100639.22;2393700;28;45423;-81
2022/04/25 01:22:39;;;;;;;;;26.75;24.50;;;;;15.32;47.17;100642.63;2393968;28;44815;-81
2022/04/25 01:28:18;;;;;;;;;36.75;28.75;;;;;15.29;47.14;100627.75;2394025;28;44776;-81
2022/04/25 01:29:29;;;;;;;;;40.50;32.50;;;;;15.26;47.11;100630.59;2393515;28;45338;-80
2022/04/25 01:30:39;;;;;;;;;38.75;32.50;;;;;15.25;47.16;100628.88;2393893;28;44633;-80
2022/04/25 01:31:49;;;;;;;;;25.75;22.75;;;;;15.22;47.74;100627.25;2392666;28;46298;-80
2022/04/25 01:33:00;;;;;;;;;37.00;29.50;;;;;15.22;47.48;100629.03;2393856;28;44691;-81
2022/04/25 01:34:10;;;;;;;;;35.50;30.50;;;;;15.20;47.30;100631.78;2399587;28;45518;-81
2022/04/25 01:35:21;;;;;;;;;33.25;29.75;;;;;15.19;47.46;100624.75;2384755;28;45236;-81
2022/04/25 01:36:31;;;;;;;;;35.50;32.00;;;;;15.21;47.09;100625.53;2384982;28;45212;-81
2022/04/25 01:37:41;;;;;;;;;26.00;22.00;;;;;15.22;47.50;100627.25;2393896;28;44554;-81
2022/04/25 01:38:52;;;;;;;;;33.25;29.50;;;;;15.23;47.51;100636.91;2393526;28;45364;-81
2022/04/25 01:40:03;;;;;;;;;36.50;33.25;;;;;15.22;47.39;100627.25;2392062;28;44798;-81
2022/04/25 01:41:14;;;;;;;;;35.25;32.25;;;;;15.21;47.48;100622.03;2393624;28;46509;-81
2022/04/25 01:42:24;;;;;;;;;33.00;31.25;;;;;15.22;47.41;100626.38;2392088;28;44712;-81
2022/04/25 01:43:36;;;;;;;;;30.25;26.75;;;;;15.19;47.52;100624.75;2394927;28;45469;-81
2022/04/25 01:44:47;;;;;;;;;39.75;31.00;;;;;15.18;47.00;100629.22;2395869;28;44742;-80
2022/04/25 01:45:57;;;;;;;;;29.75;26.50;;;;;15.14;47.68;100632.09;2388655;28;47776;-80
2022/04/25 01:47:08;;;;;;;;;34.50;26.00;;;;;15.11;47.76;100629.63;2377248;28;45355;-80
2022/04/25 01:48:19;;;;;;;;;28.00;25.25;;;;;15.08;47.67;100620.06;2384104;28;45511;-82
2022/04/25 01:49:29;;;;;;;;;24.00;20.50;;;;;15.09;48.04;100628.88;2384699;28;45373;-81
2022/04/25 01:50:40;;;;;;;;;23.25;21.75;;;;;15.06;47.81;100632.53;2384445;28;45417;-82
2022/04/25 01:51:50;;;;;;;;;30.75;25.25;;;;;15.03;47.83;100635.34;2393760;28;45224;-80
2022/04/25 01:53:01;;;;;;;;;24.75;22.00;;;;;15.02;47.93;100638.91;2396390;28;46170;-80
2022/04/25 01:54:13;;;;;;;;;27.00;23.75;;;;;15.03;47.87;100637.97;2393809;28;45302;-80
2022/04/25 01:55:23;;;;;;;;;23.50;18.75;;;;;15.00;48.29;100633.69;2393662;28;45655;-80
2022/04/25 01:56:34;;;;;;;;;22.25;19.75;;;;;15.00;48.59;100635.50;2393489;28;45315;-80
2022/04/25 01:57:44;;;;;;;;;20.25;19.50;;;;;15.00;48.06;100636.34;2393445;28;46262;-80
2022/04/25 01:58:54;;;;;;;;;20.75;20.75;;;;;15.00;48.04;100639.00;2393655;28;45264;-80
2022/04/25 02:00:06;;;;;;;;;22.75;18.75;;;;;15.02;48.18;100637.13;2393582;28;45582;-81
2022/04/25 02:01:16;;;;;;;;;22.50;18.75;;;;;15.00;48.01;100638.13;2393578;28;45457;-80
2022/04/25 02:02:27;;;;;;;;;20.25;17.25;;;;;14.98;48.09;100640.88;2381518;28;46203;-79
2022/04/25 02:03:37;;;;;;;;;18.50;16.25;;;;;14.94;48.21;100639.31;2377350;28;45382;-79
2022/04/25 02:04:47;;;;;;;;;17.00;16.00;;;;;14.92;48.39;100641.19;2385788;28;45344;-79
2022/04/25 02:05:57;;;;;;;;;18.50;17.00;;;;;14.90;48.45;100651.00;2392454;28;45465;-80
2022/04/25 02:07:09;;;;;;;;;19.75;18.25;;;;;14.87;48.42;100649.38;2393351;28;46161;-81
2022/04/25 02:08:19;;;;;;;;;17.75;16.25;;;;;14.87;48.28;100648.50;2393447;28;44771;-81
2022/04/25 02:09:29;;;;;;;;;14.00;14.00;;;;;14.87;48.44;100651.16;2393209;28;45426;-81
2022/04/25 02:10:40;;;;;;;;;21.75;16.25;;;;;14.88;48.39;100655.53;2393573;28;44757;-81
2022/04/25 02:11:50;;;;;;;;;20.25;18.50;;;;;14.84;48.84;100654.81;2393006;28;45308;-80
2022/04/25 02:13:01;;;;;;;;;15.50;13.25;;;;;14.81;48.59;100655.81;2393865;28;45432;-80
2022/04/25 02:14:11;;;;;;;;;19.25;15.75;;;;;14.77;48.78;100659.53;2402780;28;46096;-80
2022/04/25 02:15:22;;;;;;;;;17.25;17.25;;;;;14.72;48.50;100653.63;2394405;28;45448;-80
2022/04/25 02:16:32;;;;;;;;;22.25;16.75;;;;;14.70;48.54;100656.38;2393384;28;45619;-80
2022/04/25 02:17:44;;;;;;;;;21.00;18.75;;;;;14.63;48.88;100647.91;2394765;28;45420;-80
2022/04/25 02:18:54;;;;;;;;;22.50;16.75;;;;;14.60;49.10;100653.34;2400949;28;48238;-80
2022/04/25 02:20:06;;;;;;;;;20.50;15.75;;;;;14.57;48.93;100653.50;2397518;28;45500;-80
2022/04/25 02:21:16;;;;;;;;;20.50;16.00;;;;;14.56;49.00;100651.81;2398538;28;45505;-80
2022/04/25 02:22:27;;;;;;;;;21.75;17.75;;;;;14.55;49.68;100654.50;2397756;28;45286;-81
2022/04/25 02:23:38;;;;;;;;;17.50;16.75;;;;;14.55;49.48;100659.78;2399026;28;45489;-81
2022/04/25 02:24:48;;;;;;;;;17.50;16.25;;;;;14.53;50.07;100659.88;2396612;28;45353;-81
2022/04/25 02:25:59;;;;;;;;;18.75;18.50;;;;;14.49;49.37;100658.34;2401018;28;45385;-81
2022/04/25 02:27:10;;;;;;;;;17.00;14.50;;;;;14.45;49.68;100664.69;2384044;28;45293;-81
2022/04/25 02:28:20;;;;;;;;;18.25;18.00;;;;;14.39;49.39;100657.97;2390092;28;46611;-80
2022/04/25 02:29:35;;;;;;;;;18.25;16.00;;;;;14.40;50.06;100657.00;2393319;28;44835;-80
2022/04/25 02:30:46;;;;;;;;;22.75;17.25;;;;;14.37;49.54;100658.00;2393583;28;45436;-80
2022/04/25 02:31:57;;;;;;;;;15.75;15.75;;;;;14.36;49.82;100651.03;2392369;28;45547;-80
2022/04/25 02:33:08;;;;;;;;;16.50;15.25;;;;;14.37;50.29;100662.47;2393279;28;46810;-80
2022/04/25 02:34:18;;;;;;;;;20.75;18.00;;;;;14.33;49.88;100656.47;2393387;28;46196;-80
2022/04/25 02:35:28;;;;;;;;;22.75;17.50;;;;;14.33;50.18;100659.09;2393216;28;46089;-80
2022/04/25 02:36:39;;;;;;;;;20.50;15.75;;;;;14.33;50.60;100658.25;2393348;28;45327;-80
2022/04/25 02:37:49;;;;;;;;;18.00;16.75;;;;;14.30;50.05;100664.53;2392916;28;46239;-80
2022/04/25 02:39:00;;;;;;;;;17.75;17.50;;;;;14.26;50.04;100657.72;2393093;28;45339;-80
2022/04/25 02:40:10;;;;;;;;;22.75;17.75;;;;;14.24;50.29;100656.94;2394150;28;45367;-80
2022/04/25 02:41:21;;;;;;;;;20.50;18.50;;;;;14.25;49.86;100663.91;2400035;28;45250;-80
2022/04/25 02:42:31;;;;;;;;;18.00;15.25;;;;;14.24;50.81;100663.09;2393466;28;45152;-80
2022/04/25 02:43:43;;;;;;;;;23.50;17.75;;;;;14.23;50.42;100657.84;2393301;28;45199;-80
2022/04/25 02:44:53;;;;;;;;;19.00;17.25;;;;;14.24;50.63;100659.56;2392850;28;46268;-80
2022/04/25 02:46:06;;;;;;;;;19.25;16.75;;;;;14.26;50.52;100658.56;2393271;28;44605;-81
2022/04/25 02:47:16;;;;;;;;;18.00;15.25;;;;;14.29;50.53;100663.72;2393105;28;45535;-81
2022/04/25 02:48:27;;;;;;;;;20.00;17.00;;;;;14.33;50.25;100661.75;2401105;28;45421;-79
2022/04/25 02:49:37;;;;;;;;;22.00;16.00;;;;;14.35;50.59;100664.31;2394743;28;46139;-79
2022/04/25 02:50:48;;;;;;;;;18.25;16.25;;;;;14.35;50.37;100659.88;2400921;28;45430;-81
2022/04/25 02:51:58;;;;;;;;;20.00;18.50;;;;;14.35;50.58;100659.03;2393218;28;45444;-80
2022/04/25 02:53:08;;;;;;;;;24.25;19.75;;;;;14.32;50.25;100649.44;2397502;28;45435;-82
2022/04/25 02:54:19;;;;;;;;;23.50;20.75;;;;;14.31;50.61;100663.63;2394668;28;46252;-80
2022/04/25 02:55:29;;;;;;;;;18.00;14.25;;;;;14.24;51.68;100672.78;2382928;28;45348;-82
2022/04/25 02:56:40;;;;;;;;;17.25;17.25;;;;;14.17;51.22;100661.69;2385889;28;45600;-78
2022/04/25 02:57:50;;;;;;;;;20.00;18.50;;;;;14.13;51.10;100660.09;2401813;28;45381;-80
2022/04/25 02:59:00;;;;;;;;;24.25;20.50;;;;;14.11;50.63;100661.97;2399395;28;46531;-80
2022/04/25 03:00:11;;;;;;;;;23.50;20.50;;;;;14.10;51.32;100657.63;2393786;28;45380;-80
2022/04/25 03:01:22;;;;;;;;;25.75;20.75;;;;;14.11;51.42;100665.47;2393066;28;45227;-80
2022/04/25 03:02:32;;;;;;;;;22.75;19.00;;;;;14.10;51.34;100660.28;2392446;28;45195;-82
2022/04/25 03:03:42;;;;;;;;;18.25;18.00;;;;;14.11;51.87;100654.91;2393128;28;45248;-81
2022/04/25 03:04:53;;;;;;;;;17.75;14.00;;;;;14.13;51.23;100668.03;2393252;28;45224;-81
2022/04/25 03:06:06;;;;;;;;;18.25;16.25;;;;;14.12;51.23;100668.97;2393041;28;46300;-80
2022/04/25 03:07:16;;;;;;;;;21.50;19.25;;;;;14.12;51.41;100671.63;2393208;28;44830;-80
2022/04/25 03:08:26;;;;;;;;;23.75;19.25;;;;;14.13;51.38;100665.38;2392985;28;45315;-81
2022/04/25 03:09:37;;;;;;;;;21.00;18.25;;;;;14.15;51.46;100671.44;2393077;28;45298;-80
2022/04/25 03:10:51;;;;;;;;;20.25;12.25;;;;;14.14;51.44;100667.97;2393124;28;45530;-80
2022/04/25 03:12:02;;;;;;;;;17.25;16.00;;;;;14.13;51.68;100668.88;2392960;28;45243;-81
2022/04/25 03:13:13;;;;;;;;;21.75;19.00;;;;;14.14;51.24;100662.69;2393027;28;47258;-83
2022/04/25 03:14:23;;;;;;;;;23.75;19.25;;;;;14.16;52.04;100665.22;2395584;28;45299;-83
2022/04/25 03:15:38;;;;;;;;;17.00;16.25;;;;;14.12;51.29;100671.63;2393266;28;45219;-81
2022/04/25 03:16:49;;;;;;;;;26.75;24.00;;;;;14.09;51.44;100674.41;2393116;28;45315;-81
2022/04/25 03:18:02;;;;;;;;;20.00;19.00;;;;;14.09;51.71;100671.75;2392884;28;45575;-81
2022/04/25 03:19:13;;;;;;;;;22.50;21.00;;;;;14.06;52.31;100670.13;2393165;28;45228;-82
2022/04/25 03:20:23;;;;;;;;;22.00;19.00;;;;;14.03;51.66;100671.13;2393060;28;46253;-81
2022/04/25 03:21:34;;;;;;;;;19.75;17.75;;;;;14.01;52.57;100680.06;2393135;28;44766;-81
2022/04/25 03:22:44;;;;;;;;;20.75;18.75;;;;;13.98;52.00;100674.91;2393013;28;46587;-81
2022/04/25 03:23:56;;;;;;;;;22.75;19.50;;;;;13.95;52.22;100668.84;2393260;28;45318;-81
2022/04/25 03:25:07;;;;;;;;;23.25;20.25;;;;;13.93;52.16;100673.34;2392712;28;45500;-80
2022/04/25 03:26:17;;;;;;;;;23.50;17.50;;;;;13.89;51.86;100670.94;2392963;28;45220;-80
2022/04/25 03:27:28;;;;;;;;;22.50;18.25;;;;;13.85;52.39;100670.25;2401950;28;45425;-80
2022/04/25 03:28:38;;;;;;;;;21.75;17.50;;;;;13.83;52.63;100674.72;2393015;28;45386;-80
2022/04/25 03:29:48;;;;;;;;;22.75;18.50;;;;;13.82;52.32;100673.03;2392513;28;46257;-80
2022/04/25 03:30:59;;;;;;;;;18.50;15.00;;;;;13.81;52.40;100677.44;2393036;28;45220;-80
2022/04/25 03:32:09;;;;;;;;;22.00;19.00;;;;;13.81;52.31;100676.59;2392971;28;45417;-80
2022/04/25 03:33:20;;;;;;;;;20.00;16.75;;;;;13.82;52.56;100678.31;2392821;28;45430;-81
2022/04/25 03:34:30;;;;;;;;;20.75;15.50;;;;;13.79;52.75;100679.31;2392861;28;45351;-83
2022/04/25 03:35:43;;;;;;;;;22.75;19.25;;;;;13.81;52.22;100681.88;2393019;28;44637;-85
2022/04/25 03:36:56;;;;;;;;;22.00;19.25;;;;;13.82;52.45;100681.81;2393257;28;45467;-84
2022/04/25 03:38:07;;;;;;;;;19.75;17.00;;;;;13.81;53.16;100676.59;2394843;28;44810;-82
2022/04/25 03:39:18;;;;;;;;;22.25;21.75;;;;;13.78;52.86;100676.75;2394369;28;45520;-85
2022/04/25 03:40:28;;;;;;;;;24.00;16.50;;;;;13.76;52.83;100683.88;2394609;28;45317;-81
2022/04/25 03:41:39;;;;;;;;;23.25;21.75;;;;;13.78;53.14;100676.75;2394406;28;45326;-81
2022/04/25 03:42:49;;;;;;;;;25.50;24.25;;;;;13.78;52.98;100687.31;2393399;28;44743;-81
2022/04/25 03:44:00;;;;;;;;;19.75;17.75;;;;;13.74;53.05;100678.66;2403838;28;45428;-81
2022/04/25 03:45:11;;;;;;;;;16.25;15.25;;;;;13.73;53.18;100680.44;2395647;28;45275;-83
2022/04/25 03:46:22;;;;;;;;;26.75;22.00;;;;;13.71;53.11;100677.03;2395421;28;46391;-81
2022/04/25 03:47:32;;;;;;;;;24.75;19.75;;;;;13.70;52.90;100691.16;2404040;28;45230;-81
2022/04/25 03:48:44;;;;;;;;;24.50;16.50;;;;;13.68;52.86;100681.63;2388145;28;46481;-81
2022/04/25 03:49:54;;;;;;;;;25.75;22.25;;;;;13.69;52.92;100688.59;2389872;28;45247;-81
2022/04/25 03:51:05;;;;;;;;;19.75;16.50;;;;;13.67;52.92;100685.16;2394343;28;46275;-79
2022/04/25 03:52:15;;;;;;;;;20.25;18.25;;;;;13.65;53.30;100687.91;2394592;28;45539;-80
2022/04/25 03:53:25;;;;;;;;;21.25;18.25;;;;;13.64;53.52;100699.38;2386033;28;47349;-80
2022/04/25 03:57:34;;;;;;;;;25.50;22.50;;;;;13.60;53.91;100698.69;2394424;28;45287;-82
2022/04/25 03:58:45;;;;;;;;;22.25;21.00;;;;;13.60;53.74;100695.19;2394330;28;45360;-82
2022/04/25 03:59:55;;;;;;;;;15.00;13.50;;;;;13.60;53.78;100698.69;2394397;28;45128;-82
2022/04/25 04:01:05;;;;;;;;;29.25;22.25;;;;;13.61;53.34;100696.88;2384258;28;46970;-83
2022/04/25 04:02:16;;;;;;;;;21.50;20.25;;;;;13.58;54.98;100702.31;2387235;28;45386;-83
2022/04/25 04:03:26;;;;;;;;;28.50;20.75;;;;;13.54;54.38;100698.06;2394299;28;46160;-83
2022/04/25 04:04:36;;;;;;;;;25.00;23.00;;;;;13.48;54.09;100697.41;2393802;28;44683;-83
2022/04/25 04:05:48;;;;;;;;;21.75;21.75;;;;;13.47;54.39;100703.63;2408037;28;46473;-83
2022/04/25 04:06:58;;;;;;;;;28.00;23.50;;;;;13.47;53.97;100700.13;2413424;28;45249;-83
2022/04/25 04:08:09;;;;;;;;;27.25;22.00;;;;;13.46;54.16;100706.31;2393994;28;46907;-83
2022/04/25 04:10:49;;;;;;;;;24.25;16.25;;;;;13.45;54.57;100705.50;2403621;28;45540;-83
2022/04/25 04:11:59;;;;;;;;;23.75;20.50;;;;;13.46;54.20;100703.69;2403710;28;44755;-82
2022/04/25 04:13:09;;;;;;;;;25.50;24.00;;;;;13.44;54.13;100700.25;2403580;28;45416;-83
2022/04/25 04:14:20;;;;;;;;;27.25;25.00;;;;;13.42;54.47;100704.75;2403269;28;45456;-83
2022/04/25 04:15:30;;;;;;;;;28.25;23.50;;;;;13.43;54.58;100707.34;2403775;28;45386;-83
2022/04/25 04:16:42;;;;;;;;;26.50;20.50;;;;;13.40;54.34;100702.19;2403023;28;45136;-84
2022/04/25 04:17:52;;;;;;;;;31.25;24.75;;;;;13.43;54.67;100696.78;2407158;28;45419;-83
2022/04/25 04:19:05;;;;;;;;;22.25;18.00;;;;;13.47;54.11;100708.91;2393470;28;45217;-82
2022/04/25 04:20:15;;;;;;;;;24.50;24.50;;;;;13.48;54.41;100700.03;2387198;28;48031;-81
2022/04/25 04:21:25;;;;;;;;;28.00;23.00;;;;;13.48;54.17;100705.31;2402960;28;44735;-81
2022/04/25 04:22:36;;;;;;;;;23.25;20.25;;;;;13.49;54.53;100707.06;2406251;28;45365;-81
2022/04/25 04:23:47;;;;;;;;;30.25;22.75;;;;;13.50;54.36;100706.13;2394390;28;44696;-82
2022/04/25 04:25:01;;;;;;;;;23.75;19.75;;;;;13.48;54.73;100713.25;2403239;28;45310;-82
2022/04/25 04:26:12;;;;;;;;;22.00;21.00;;;;;13.45;54.80;100705.50;2403831;28;45234;-83
2022/04/25 04:27:22;;;;;;;;;29.50;26.00;;;;;13.45;54.54;100715.19;2402874;28;46258;-83
2022/04/25 04:28:32;;;;;;;;;26.00;25.00;;;;;13.42;54.84;100710.91;2403801;28;45160;-83
2022/04/25 04:29:44;;;;;;;;;26.25;22.00;;;;;13.40;54.76;100710.13;2401506;28;47803;-82
2022/04/25 04:30:54;;;;;;;;;30.50;22.50;;;;;13.41;55.03;100716.25;2402000;28;45167;-81
2022/04/25 04:32:07;;;;;;;;;24.00;19.50;;;;;13.38;55.32;100712.81;2403607;28;45307;-81
2022/04/25 04:33:18;;;;;;;;;31.00;25.00;;;;;13.37;54.98;100718.16;2403538;28;45437;-81
2022/04/25 04:34:29;;;;;;;;;28.50;26.00;;;;;13.33;54.82;100711.31;2403363;28;46184;-80
2022/04/25 04:37:08;;;;;;;;;32.25;26.00;;;;;13.28;54.98;100715.00;2398788;28;45744;-80
2022/04/25 04:38:18;;;;;;;;;32.50;24.00;;;;;13.28;55.04;100714.19;2403610;28;45374;-80
2022/04/25 04:39:31;;;;;;;;;24.50;19.00;;;;;13.25;55.28;100715.16;2403300;28;46178;-81
2022/04/25 04:40:41;;;;;;;;;26.50;24.50;;;;;13.21;55.39;100718.00;2403491;28;44688;-81
2022/04/25 04:41:51;;;;;;;;;27.25;26.00;;;;;13.19;55.78;100723.34;2403277;28;46568;-82
2022/04/25 04:43:02;;;;;;;;;28.75;25.25;;;;;13.20;55.49;100716.28;2403526;28;44538;-82
2022/04/25 04:44:13;;;;;;;;;16.25;15.75;;;;;13.19;56.03;100728.63;2403370;28;45264;-82
2022/04/25 04:45:24;;;;;;;;;27.25;21.75;;;;;13.14;54.97;100722.69;2404161;28;45255;-82
2022/04/25 04:46:35;;;;;;;;;32.00;29.00;;;;;13.12;55.32;100729.81;2412978;28;45282;-81
2022/04/25 04:47:46;;;;;;;;;27.25;26.00;;;;;13.11;55.85;100736.88;2405060;28;45230;-81
2022/04/25 04:48:56;;;;;;;;;3.25;2.25;;;;;13.14;56.16;100738.50;2402126;28;45831;-79
2022/04/25 04:50:15;;;;;;;;;28.25;24.00;;;;;13.13;55.54;100736.81;2402502;28;45318;-79
2022/04/25 04:51:25;;;;;;;;;32.50;28.00;;;;;13.14;54.96;100742.03;2403536;28;46118;-80
2022/04/25 04:52:36;;;;;;;;;27.50;22.75;;;;;13.14;55.82;100746.44;2403632;28;45425;-79
2022/04/25 04:53:47;;;;;;;;;28.75;27.25;;;;;13.13;55.65;100757.94;2408950;28;45552;-82
2022/04/25 04:54:57;;;;;;;;;32.50;24.50;;;;;13.11;55.53;100751.88;2403212;28;44740;-82
2022/04/25 04:56:08;;;;;;;;;31.50;27.00;;;;;13.12;55.66;100761.47;2403530;28;45227;-81
2022/04/25 04:57:18;;;;;;;;;27.25;24.00;;;;;13.07;55.94;100755.53;2403261;28;45491;-80
2022/04/25 04:58:29;;;;;;;;;33.25;28.25;;;;;13.05;55.50;100756.47;2402182;28;45443;-79
2022/04/25 04:59:39;;;;;;;;;31.50;26.25;;;;;13.04;56.08;100757.41;2407627;28;45298;-79
2022/04/25 05:00:49;;;;;;;;;29.00;22.75;;;;;13.00;56.27;100754.97;2404787;28;45347;-79
2022/04/25 05:02:00;;;;;;;;;26.00;25.75;;;;;12.99;55.91;100761.19;2405872;28;45330;-79
2022/04/25 05:03:13;;;;;;;;;26.50;24.25;;;;;12.98;55.99;100760.31;2402930;28;46315;-78
2022/04/25 05:04:24;;;;;;;;;33.25;27.50;;;;;12.97;56.70;100761.22;2403513;28;45286;-79
2022/04/25 05:05:34;;;;;;;;;37.00;32.75;;;;;12.98;56.40;100760.31;2397768;28;46261;-79
2022/04/25 05:06:45;;;;;;;;;34.75;31.25;;;;;12.99;56.59;100762.00;2394055;28;45239;-79
2022/04/25 05:07:55;;;;;;;;;38.50;29.75;;;;;13.01;56.26;100769.88;2393978;28;46095;-79
2022/04/25 05:09:06;;;;;;;;;38.50;32.25;;;;;13.00;56.25;100768.16;2400382;28;45522;-78
2022/04/25 05:10:16;;;;;;;;;37.50;32.00;;;;;12.98;56.39;100767.38;2390328;28;47244;-79
2022/04/25 05:11:29;;;;;;;;;30.75;25.00;;;;;12.99;56.58;100769.09;2386148;28;45456;-79
2022/04/25 05:12:47;;;;;;;;;39.75;30.00;;;;;12.98;55.96;100767.38;2392051;28;45682;-79
2022/04/25 05:13:59;;;;;;;;;32.50;29.50;;;;;12.96;56.80;100780.63;2393112;28;45375;-78
2022/04/25 05:15:10;;;;;;;;;41.50;31.75;;;;;12.94;56.78;100777.16;2393597;28;46362;-78
2022/04/25 05:16:20;;;;;;;;;35.75;31.25;;;;;12.92;56.74;100779.03;2393703;28;45231;-79
2022/04/25 05:17:31;;;;;;;;;30.50;28.75;;;;;12.93;56.99;100780.75;2393764;28;46653;-79
2022/04/25 05:18:44;;;;;;;;;30.25;28.50;;;;;12.96;56.77;100780.63;2393952;28;44703;-80
2022/04/25 05:19:54;;;;;;;;;37.75;32.25;;;;;13.00;56.62;100776.94;2396695;28;46481;-80
2022/04/25 05:21:05;;;;;;;;;37.75;32.25;;;;;13.01;56.66;100781.25;2391347;28;44799;-80
2022/04/25 05:22:16;;;;;;;;;36.75;31.75;;;;;13.05;56.89;100780.22;2385845;28;47004;-80
2022/04/25 05:23:27;;;;;;;;;29.25;22.75;;;;;13.06;56.54;100789.00;2385966;28;44827;-80
2022/04/25 05:24:38;;;;;;;;;34.75;33.25;;;;;13.05;56.92;100797.84;2392842;28;45414;-81
2022/04/25 05:25:48;;;;;;;;;38.50;33.00;;;;;13.01;56.67;100789.19;2393225;28;45227;-80
2022/04/25 05:26:58;;;;;;;;;33.25;31.25;;;;;13.01;56.80;100780.44;2393035;28;46295;-81
2022/04/25 05:28:09;;;;;;;;;37.75;34.00;;;;;12.99;56.90;100785.75;2393116;28;44778;-81
2022/04/25 05:29:19;;;;;;;;;37.00;31.75;;;;;13.02;57.71;100784.75;2392874;28;45434;-80
2022/04/25 05:30:30;;;;;;;;;42.50;36.75;;;;;13.04;57.24;100794.34;2394724;28;44854;-80
2022/04/25 05:31:40;;;;;;;;;45.25;36.75;;;;;13.03;56.84;100792.63;2389458;28;45563;-80
2022/04/25 05:32:54;;;;;;;;;35.25;32.75;;;;;13.05;56.91;100795.19;2392971;28;45280;-80